createdAt,value
2023-05-05T00:02:50.684Z,18.00
2023-05-05T00:07:55.709Z,17.33
2023-05-05T00:13:00.906Z,21.67
2023-05-05T00:18:07.792Z,13.00
2023-05-05T00:23:14.109Z,19.00
2023-05-05T00:28:19.260Z,20.00
2023-05-05T00:33:24.549Z,17.33
2023-05-05T00:38:30.863Z,14.67
2023-05-05T00:43:36.821Z,13.00
2023-05-05T00:48:43.062Z,11.50
2023-05-05T00:53:50.113Z,12.00
2023-05-05T00:58:55.271Z,7.00
2023-05-05T01:04:00.569Z,10.00
2023-05-05T01:09:29.072Z,10.67
2023-05-05T01:14:46.404Z,5.33
2023-05-05T01:20:10.569Z,4.00
2023-05-05T01:25:39.334Z,10.67
2023-05-05T01:31:04.106Z,8.00
2023-05-05T01:36:30.004Z,8.00
2023-05-05T01:41:42.593Z,6.00
2023-05-05T01:46:48.385Z,5.50
2023-05-05T01:51:54.805Z,6.00
2023-05-05T02:02:08.669Z,3.00
2023-05-05T02:07:15.929Z,12.00
2023-05-05T02:12:22.560Z,13.33
2023-05-05T02:17:30.717Z,9.50
2023-05-05T02:22:35.875Z,6.67
2023-05-05T02:27:45.737Z,11.33
2023-05-05T02:33:02.046Z,2.50
2023-05-05T02:38:11.549Z,6.50
2023-05-05T02:43:23.266Z,4.00
2023-05-05T02:48:30.965Z,3.33
2023-05-05T02:53:40.046Z,9.00
2023-05-05T02:59:05.358Z,8.00
2023-05-05T03:04:18.063Z,12.00
2023-05-05T03:09:47.319Z,4.00
2023-05-05T03:14:55.942Z,4.50
2023-05-05T03:20:03.800Z,6.00
2023-05-05T03:25:12.601Z,8.00
2023-05-05T03:30:19.241Z,6.00
2023-05-05T03:35:27.896Z,8.50
2023-05-05T03:40:43.671Z,6.00
2023-05-05T03:45:52.492Z,8.00
2023-05-05T03:50:57.781Z,5.50
2023-05-05T03:56:06.290Z,8.00
2023-05-05T04:01:11.806Z,8.00
2023-05-05T04:06:17.962Z,6.00
2023-05-05T04:11:23.302Z,4.00
2023-05-05T04:16:28.874Z,4.00
2023-05-05T04:21:34.331Z,8.50
2023-05-05T04:26:39.670Z,3.33
2023-05-05T04:31:45.331Z,4.00
2023-05-05T04:36:50.503Z,10.00
2023-05-05T04:41:56.810Z,2.50
2023-05-05T04:47:14.670Z,2.00
2023-05-05T04:52:20.914Z,4.67
2023-05-05T04:57:26.404Z,2.00
2023-05-05T05:07:36.507Z,6.50
2023-05-05T05:12:41.524Z,3.50
2023-05-05T05:17:46.896Z,2.00
2023-05-05T05:22:52.211Z,4.00
2023-05-05T05:28:09.454Z,9.00
2023-05-05T05:33:21.925Z,3.00
2023-05-05T05:38:27.910Z,6.00
2023-05-05T05:43:36.879Z,0.00
2023-05-05T05:48:42.686Z,2.00
2023-05-05T05:53:47.640Z,2.00
2023-05-05T05:58:53.144Z,4.00
2023-05-05T06:03:58.599Z,2.00
2023-05-05T06:09:03.594Z,2.00
2023-05-05T06:14:10.550Z,8.67
2023-05-05T06:19:15.802Z,4.00
2023-05-05T06:24:21.625Z,0.67
2023-05-05T06:29:27.240Z,2.00
2023-05-05T06:34:32.490Z,2.00
2023-05-05T06:39:37.566Z,7.00
2023-05-05T06:44:42.759Z,4.00
2023-05-05T06:49:47.744Z,5.33
2023-05-05T06:54:52.791Z,6.50
2023-05-05T06:59:57.886Z,10.00
2023-05-05T07:05:02.918Z,3.33
2023-05-05T07:15:26.726Z,2.00
2023-05-05T07:20:34.118Z,6.00
2023-05-05T07:25:39.919Z,11.33
2023-05-05T07:30:45.899Z,12.00
2023-05-05T07:35:51.122Z,8.00
2023-05-05T07:46:01.288Z,10.00
2023-05-05T07:51:07.371Z,5.50
2023-05-05T07:56:13.538Z,5.00
2023-05-05T08:01:19.817Z,2.67
2023-05-05T08:06:26.283Z,0.67
2023-05-05T08:11:31.300Z,0.00
2023-05-05T08:16:37.265Z,2.00
2023-05-05T08:21:42.694Z,0.00
2023-05-05T08:26:47.616Z,4.50
2023-05-05T08:31:52.703Z,4.00
2023-05-05T08:36:57.911Z,3.33
2023-05-05T08:47:12.581Z,2.00
2023-05-05T08:52:25.336Z,2.67
2023-05-05T08:57:54.121Z,5.00
2023-05-05T09:03:01.624Z,3.33
2023-05-05T09:08:13.305Z,2.00
2023-05-05T09:13:19.970Z,5.50
2023-05-05T09:18:28.004Z,0.00
2023-05-05T09:23:35.134Z,2.50
2023-05-05T09:28:42.653Z,1.50
2023-05-05T09:33:48.354Z,7.00
2023-05-05T09:39:09.890Z,4.00
2023-05-05T09:44:20.501Z,2.00
2023-05-05T09:49:27.917Z,3.50
2023-05-05T09:54:36.932Z,2.00
2023-05-05T09:59:55.061Z,6.00
2023-05-05T10:05:15.770Z,4.00
2023-05-05T10:10:21.447Z,0.50
2023-05-05T10:15:29.828Z,4.50
2023-05-05T10:20:37.837Z,13.33
2023-05-05T10:25:54.203Z,2.00
2023-05-05T10:31:07.628Z,6.00
2023-05-05T10:36:19.439Z,10.00
2023-05-05T10:41:26.003Z,10.00
2023-05-05T10:46:34.943Z,3.00
2023-05-05T10:51:49.467Z,2.00
2023-05-05T10:56:56.627Z,4.00
2023-05-05T11:02:02.183Z,2.67
2023-05-05T11:07:15.200Z,6.00
2023-05-05T11:12:22.420Z,4.50
2023-05-05T11:17:47.499Z,6.00
2023-05-05T11:23:06.316Z,12.00
2023-05-05T11:28:17.810Z,9.50
2023-05-05T11:33:38.136Z,6.00
2023-05-05T11:38:57.428Z,13.00
2023-05-05T11:44:14.771Z,8.50
2023-05-05T11:49:30.797Z,2.00
2023-05-05T11:54:51.590Z,6.67
2023-05-05T12:00:03.755Z,8.50
2023-05-05T12:05:13.335Z,8.50
2023-05-05T12:10:26.312Z,6.50
2023-05-05T12:15:35.091Z,12.50
2023-05-05T12:20:42.820Z,0.50
2023-05-05T12:25:48.382Z,4.50
2023-05-05T12:31:00.795Z,2.00
2023-05-05T12:36:06.724Z,1.50
2023-05-05T12:41:12.511Z,5.50
2023-05-05T12:46:18.773Z,4.00
2023-05-05T12:51:25.598Z,7.00
2023-05-05T12:56:42.851Z,4.00
2023-05-05T13:01:56.940Z,3.50
2023-05-05T13:07:16.569Z,3.33
2023-05-05T13:12:23.341Z,4.00
2023-05-05T13:17:30.329Z,4.67
2023-05-05T13:22:35.864Z,8.00
2023-05-05T13:27:41.134Z,3.00
2023-05-05T13:32:46.442Z,2.50
2023-05-05T13:37:51.671Z,4.00
2023-05-05T13:42:59.167Z,4.00
2023-05-05T13:48:04.477Z,4.00
2023-05-05T13:53:09.984Z,4.00
2023-05-05T14:03:20.467Z,4.50
2023-05-05T14:08:25.977Z,2.00
2023-05-05T14:13:31.271Z,3.33
2023-05-05T14:23:42.021Z,3.00
2023-05-05T14:28:49.747Z,0.00
2023-05-05T14:33:55.328Z,6.00
2023-05-05T14:39:00.619Z,1.50
2023-05-05T14:44:07.363Z,0.50
2023-05-05T14:49:12.961Z,2.00
2023-05-05T14:54:27.422Z,2.50
2023-05-05T14:59:33.345Z,2.50
2023-05-05T15:04:38.687Z,2.50
2023-05-05T15:09:43.834Z,0.50
2023-05-05T15:14:48.992Z,2.00
2023-05-05T15:19:54.154Z,2.00
2023-05-05T15:24:59.183Z,4.00
2023-05-05T15:30:04.419Z,2.00
2023-05-05T15:40:17.351Z,2.50
2023-05-05T15:45:22.481Z,5.33
2023-05-05T15:55:33.189Z,0.00
2023-05-05T16:00:40.318Z,2.00
2023-05-05T16:10:50.873Z,3.33
2023-05-05T16:15:58.233Z,4.00
2023-05-05T16:21:04.223Z,0.00
2023-05-05T16:26:10.175Z,2.50
2023-05-05T16:31:15.581Z,3.00
2023-05-05T16:36:21.977Z,3.00
2023-05-05T16:41:27.838Z,1.50
2023-05-05T16:46:32.865Z,0.00
2023-05-05T16:51:37.809Z,2.67
2023-05-05T16:56:42.925Z,2.00
2023-05-05T17:01:48.095Z,2.00
2023-05-05T17:06:53.065Z,2.00
2023-05-05T17:11:58.149Z,2.67
2023-05-05T17:17:03.104Z,2.00
2023-05-05T17:22:09.200Z,2.00
2023-05-05T17:27:15.827Z,5.50
2023-05-05T17:32:21.072Z,2.00
2023-05-05T17:37:25.910Z,2.00
2023-05-05T17:42:34.553Z,4.00
2023-05-05T17:47:39.500Z,0.00
2023-05-05T17:52:46.352Z,4.00
2023-05-05T17:57:51.513Z,5.33
2023-05-05T18:02:56.653Z,3.50
2023-05-05T18:08:01.908Z,3.00
2023-05-05T18:13:07.076Z,2.00
2023-05-05T18:18:12.098Z,3.50
2023-05-05T18:23:17.318Z,1.50
2023-05-05T18:28:22.337Z,0.00
2023-05-05T18:33:29.052Z,2.00
2023-05-05T18:38:35.432Z,1.00
2023-05-05T18:43:40.256Z,0.00
2023-05-05T18:48:45.619Z,2.00
2023-05-05T18:53:53.111Z,2.00
2023-05-05T18:58:59.884Z,2.00
2023-05-05T19:04:08.495Z,2.00
2023-05-05T19:09:18.092Z,1.00
2023-05-05T19:14:23.710Z,2.00
2023-05-05T19:19:30.180Z,2.00
2023-05-05T19:24:36.736Z,0.00
2023-05-05T19:29:43.475Z,4.00
2023-05-05T19:34:48.704Z,0.00
2023-05-05T19:39:53.862Z,6.00
2023-05-05T19:44:59.203Z,2.00
2023-05-05T19:50:05.245Z,4.00
2023-05-05T19:55:14.321Z,1.33
2023-05-05T20:00:19.939Z,5.00
2023-05-05T20:05:25.122Z,6.00
2023-05-05T20:10:29.877Z,2.00
2023-05-05T20:15:35.982Z,5.50
2023-05-05T20:20:41.733Z,6.00
2023-05-05T20:25:46.860Z,5.33
2023-05-05T20:35:58.308Z,5.33
2023-05-05T20:41:03.346Z,2.00
2023-05-05T20:46:12.301Z,2.00
2023-05-05T20:51:19.025Z,4.67
2023-05-05T20:56:23.767Z,2.00
2023-05-05T21:01:29.635Z,2.00
2023-05-05T21:06:34.891Z,0.50
2023-05-05T21:11:39.998Z,4.00
2023-05-05T21:16:45.197Z,2.00
2023-05-05T21:21:50.396Z,2.00
2023-05-05T21:26:57.626Z,0.00
2023-05-05T21:32:02.745Z,4.00
2023-05-05T21:37:08.449Z,1.33
2023-05-05T21:42:13.478Z,1.50
2023-05-05T21:47:18.880Z,4.00
2023-05-05T21:52:23.783Z,0.00
2023-05-05T21:57:28.809Z,3.50
2023-05-05T22:02:34.967Z,2.00
2023-05-05T22:07:40.586Z,6.00
2023-05-05T22:12:45.332Z,0.00
2023-05-05T22:17:50.581Z,2.00
2023-05-05T22:22:55.483Z,2.00
2023-05-05T22:28:00.627Z,3.50
2023-05-05T22:33:06.395Z,4.00
2023-05-05T22:38:11.416Z,3.00
2023-05-05T22:43:17.630Z,6.00
2023-05-05T22:48:22.911Z,6.00
2023-05-05T22:53:27.968Z,6.00
2023-05-05T22:58:32.719Z,4.00
2023-05-05T23:03:37.953Z,4.00
2023-05-05T23:08:44.222Z,3.50
2023-05-05T23:13:49.192Z,2.00
2023-05-05T23:18:55.784Z,12.00
2023-05-05T23:24:01.061Z,7.00
2023-05-05T23:29:06.994Z,3.50
2023-05-05T23:34:12.013Z,2.50
2023-05-05T23:39:17.867Z,4.00
2023-05-05T23:44:23.687Z,2.50
2023-05-05T23:49:28.535Z,4.00
2023-05-05T23:54:33.424Z,5.33
2023-05-05T23:59:39.273Z,0.00
